Flight Track Log - Related Links

Times and Time Zones

All times are in EDT time to prevent confusion due to time zone crossing. See the UAL4695 flight status page for this flight to view local times or setup timezone preferences in your user account.

Time Position Orientation Groundspeed Altitude Reporting Facility
EDT Latitude Longitude Course Direction KTS MPH feet Rate Location/Type
Sun 05:09:56 PM 35.0500 -89.9667 33° Northeast 146 168 800  Level KMEM
Sun 05:10:50 PM 35.1000 -89.9667 360° North 187 215 2,300 1,737 Climbing KMEM
Sun 05:11:50 PM 35.1500 -89.9500 15° North 255 293 4,100 2,132 Climbing KMEM
Sun 05:12:51 PM 35.2167 -89.9333 12° North 247 284 6,600 2,300 Climbing KMEM
Sun 05:13:50 PM 35.2833 -89.8833 31° Northeast 264 304 8,700 2,182 Climbing KMEM
Sun 05:14:08 PM 35.3067 -89.8583 41° Northeast 264 304 9,400 1,846 Climbing Memphis Center
Sun 05:15:00 PM 35.3006 -89.7662 33° Northeast  Level FlightAware Approximate
Sun 05:15:08 PM 35.3586 -89.8072 39° Northeast 273 314 11,100  Level Memphis Center
Sun 05:16:08 PM 35.4208 -89.7506 37° Northeast 286 329 11,600 600 Climbing Memphis Center
Sun 05:17:08 PM 35.4936 -89.6761 40° Northeast 323 372 12,300 900 Climbing Memphis Center
Sun 05:18:08 PM 35.5703 -89.6017 38° Northeast 346 398 13,400 1,100 Climbing Memphis Center
Sun 05:19:08 PM 35.6469 -89.5217 40° Northeast 351 404 14,500 1,200 Climbing Memphis Center
Sun 05:20:08 PM 35.7319 -89.4517 34° Northeast 342 394 15,800 1,200 Climbing Memphis Center
Sun 05:21:08 PM 35.8150 -89.3894 31° Northeast 342 394 16,900 1,000 Climbing Memphis Center
Sun 05:22:08 PM 35.8978 -89.3269 31° Northeast 342 394 17,800 6,033 Climbing Memphis Center
Sun 05:24:08 PM 36.0678 -89.1989 31° Northeast 348 400 35,000 1,000 Climbing Memphis Center
Sun 05:25:08 PM 36.1567 -89.1333 31° Northeast 354 407 20,800 -4,067 Descending Memphis Center
Sun 05:27:08 PM 36.3367 -88.9992 31° Northeast 364 419 22,800 1,000 Climbing Memphis Center
Sun 05:28:08 PM 36.4256 -88.9308 32° Northeast 364 419 23,800 1,000 Climbing Memphis Center
Sun 05:29:08 PM 36.5081 -88.8672 32° Northeast 375 432 24,800 1,000 Climbing Memphis Center
Sun 05:30:08 PM 36.5969 -88.8011 31° Northeast 375 432 25,800 1,000 Climbing Memphis Center
Sun 05:31:08 PM 36.6858 -88.7347 31° Northeast 375 432 26,800 1,000 Climbing Memphis Center
Sun 05:32:08 PM 36.7639 -88.6503 41° Northeast 375 432 27,800 1,000 Climbing Memphis Center
Sun 05:33:08 PM 36.8333 -88.5631 45° Northeast 362 417 28,800 950 Climbing Memphis Center
Sun 05:34:08 PM 36.9008 -88.4786 45° Northeast 351 404 29,700 900 Climbing Memphis Center
Sun 05:35:08 PM 36.9703 -88.3886 46° Northeast 346 398 30,600 800 Climbing Memphis Center
Sun 05:36:08 PM 37.0419 -88.3011 44° Northeast 352 405 31,300 700 Climbing Memphis Center
Sun 05:37:08 PM 37.1194 -88.1978 47° Northeast 357 411 32,000 750 Climbing Memphis Center
Sun 05:38:08 PM 37.1947 -88.1019 45° Northeast 357 411 32,800 795 Climbing Memphis Center
Sun 05:39:39 PM 37.2939 -87.9644 48° Northeast 383 441 34,000 706 Climbing Indianapolis Center
Sun 05:40:41 PM 37.3689 -87.8669 46° Northeast 383 441 34,600 323 Climbing Indianapolis Center
Sun 05:42:00 PM 37.4690 -87.7240 47° Northeast  Level FlightAware Approximate
Sun 05:42:45 PM 37.5394 -87.6428 47° Northeast 407 468 35,000  Level Indianapolis Center
Sun 05:43:46 PM 37.6219 -87.5350 46° Northeast 421 484 35,000  Level Indianapolis Center
Sun 05:44:48 PM 37.7042 -87.4250 47° Northeast 425 489 35,000  Level Indianapolis Center
Sun 05:45:50 PM 37.7886 -87.3122 47° Northeast 430 495 35,000  Level Indianapolis Center
Sun 05:46:52 PM 37.8711 -87.2036 46° Northeast 429 494 35,000  Level Indianapolis Center
Sun 05:47:54 PM 37.9511 -87.0958 47° Northeast 422 486 35,000  Level Indianapolis Center
Sun 05:48:56 PM 38.0303 -86.9906 46° Northeast 415 478 35,000  Level Indianapolis Center
Sun 05:49:58 PM 38.1081 -86.8861 47° Northeast 412 474 35,000  Level Indianapolis Center
Sun 05:50:59 PM 38.2014 -86.7592 47° Northeast 415 478 35,000  Level Indianapolis Center
Sun 05:52:01 PM 38.2808 -86.6533 46° Northeast 416 479 35,000  Level Indianapolis Center
Sun 05:53:03 PM 38.3589 -86.5450 47° Northeast 417 480 35,000  Level Indianapolis Center
Sun 05:54:05 PM 38.4356 -86.4389 47° Northeast 408 470 35,000  Level Indianapolis Center
Sun 05:55:07 PM 38.5056 -86.3269 51° Northeast 404 465 35,000  Level Indianapolis Center
Sun 05:56:09 PM 38.5756 -86.2161 51° Northeast 400 460 35,000  Level Indianapolis Center
Sun 05:58:13 PM 38.7331 -85.9650 51° Northeast 411 473 35,000  Level Indianapolis Center
Sun 05:59:14 PM 38.7950 -85.8644 52° Northeast 415 478 35,000 259 Level Indianapolis Center
Sun 06:01:00 PM 38.9118 -85.6556 52° Northeast  Level FlightAware Approximate
Sun 06:01:18 PM 38.9514 -85.6125 52° Northeast 413 475 35,800  Level Indianapolis Center
Sun 06:02:20 PM 39.0211 -85.4961 52° Northeast 414 476 36,200 435 Climbing Indianapolis Center
Sun 06:03:22 PM 39.0925 -85.3806 51° Northeast 414 476 36,700 387 Climbing Indianapolis Center
Sun 06:04:24 PM 39.1631 -85.2647 52° Northeast 413 475 37,000 145 Climbing Indianapolis Center
Sun 06:05:26 PM 39.2492 -85.1211 52° Northeast 421 484 37,000  Level Indianapolis Center
Sun 06:06:28 PM 39.3225 -85.0008 52° Northeast 428 493 37,000  Level Indianapolis Center
Sun 06:07:30 PM 39.3925 -84.8822 53° Northeast 430 495 37,000  Level Indianapolis Center
Sun 06:08:32 PM 39.4664 -84.7617 52° Northeast 426 490 37,000  Level Indianapolis Center
Sun 06:09:34 PM 39.5381 -84.6400 53° Northeast 422 486 37,000  Level Indianapolis Center
Sun 06:10:36 PM 39.6231 -84.4967 52° Northeast 424 488 37,000  Level Indianapolis Center
Sun 06:11:38 PM 39.6953 -84.3739 53° Northeast 424 488 37,000  Level Indianapolis Center
Sun 06:12:40 PM 39.7683 -84.2500 52° Northeast 427 491 37,000  Level Indianapolis Center
Sun 06:13:42 PM 39.8411 -84.1258 53° Northeast 427 491 37,000  Level Indianapolis Center
Sun 06:14:44 PM 39.9144 -84.0014 52° Northeast 429 494 37,000  Level Indianapolis Center
Sun 06:15:46 PM 39.9883 -83.8747 53° Northeast 430 495 37,000  Level Indianapolis Center
Sun 06:16:48 PM 40.0631 -83.7469 53° Northeast 434 499 37,000  Level Indianapolis Center
Sun 06:17:50 PM 40.1381 -83.6164 53° Northeast 441 507 37,000  Level Indianapolis Center
Sun 06:18:52 PM 40.2133 -83.4858 53° Northeast 442 509 37,000  Level Indianapolis Center
Sun 06:19:54 PM 40.2886 -83.3533 53° Northeast 446 513 37,000  Level Indianapolis Center
Sun 06:20:56 PM 40.3761 -83.1992 53° Northeast 447 514 37,000  Level Indianapolis Center
Sun 06:21:58 PM 40.4525 -83.0650 53° Northeast 451 519 37,000  Level Indianapolis Center
Sun 06:23:00 PM 40.5200 -82.9456 53° Northeast 452 520 37,000  Level Indianapolis Center
Sun 06:24:02 PM 40.6078 -82.7883 54° Northeast 452 520 37,000  Level Indianapolis Center
Sun 06:25:04 PM 40.6831 -82.6547 53° Northeast 450 518 37,000  Level Indianapolis Center
Sun 06:25:36 PM 40.7208 -82.5858 54° Northeast 441 507 37,000  Level Cleveland Center
Sun 06:26:36 PM 40.7939 -82.4564 53° Northeast 441 507 37,000  Level Cleveland Center
Sun 06:27:36 PM 40.8647 -82.3239 55° Northeast 446 513 37,000  Level Cleveland Center
Sun 06:28:36 PM 40.9375 -82.1939 53° Northeast 446 513 37,000  Level Cleveland Center
Sun 06:29:36 PM 41.0144 -82.0553 54° Northeast 452 520 37,000  Level Cleveland Center
Sun 06:31:16 PM 41.1353 -81.8319 54° Northeast 446 513 37,000  Level Indianapolis Center
Sun 06:31:36 PM 41.1550 -81.7992 51° Northeast 457 526 37,000  Level Cleveland Center
Sun 06:32:36 PM 41.2336 -81.6544 54° Northeast 452 520 37,000  Level Cleveland Center
Sun 06:33:36 PM 41.3078 -81.5203 54° Northeast 452 520 37,000  Level Cleveland Center
Sun 06:34:36 PM 41.3797 -81.3800 56° Northeast 447 514 37,000  Level Cleveland Center
Sun 06:36:00 PM 41.4670 -81.2098 56° Northeast  Level FlightAware Approximate
Sun 06:36:36 PM 41.5208 -81.1156 56° Northeast 441 507 37,000  Level Cleveland Center
Sun 06:37:36 PM 41.5842 -80.9800 58° Northeast 441 507 37,000  Level Cleveland Center
Sun 06:38:36 PM 41.5908 -80.8136 87° East 428 493 37,000  Level Cleveland Center
Sun 06:39:36 PM 41.5889 -80.6525 91° East 428 493 37,000  Level Cleveland Center
Sun 06:40:36 PM 41.5847 -80.5056 92° East 438 504 37,000  Level Cleveland Center
Sun 06:41:36 PM 41.5844 -80.3222 90° East 444 511 37,000  Level Cleveland Center
Sun 06:42:36 PM 41.5819 -80.1583 91° East 444 511 37,000  Level Cleveland Center
Sun 06:43:36 PM 41.5769 -79.9975 92° East 437 503 37,000  Level Cleveland Center
Sun 06:44:36 PM 41.5719 -79.8531 93° East 431 496 37,000  Level Cleveland Center
Sun 06:45:36 PM 41.5689 -79.6894 91° East 431 496 37,000  Level Cleveland Center
Sun 06:46:36 PM 41.5633 -79.5286 93° East 436 502 37,000  Level Cleveland Center
Sun 06:47:36 PM 41.5617 -79.3678 91° East 436 502 37,000  Level Cleveland Center
Sun 06:48:36 PM 41.5556 -79.2014 93° East 441 507 37,000  Level Cleveland Center
Sun 06:49:36 PM 41.5494 -79.0378 93° East 441 507 37,000  Level Cleveland Center
Sun 06:50:36 PM 41.5469 -78.8742 91° East 441 507 37,000  Level Cleveland Center
Sun 06:52:19 PM 41.5372 -78.5842 92° East 441 507 37,000 -186 Level New York Center
Sun 06:53:17 PM 41.5311 -78.4228 93° East 441 507 36,500 -1,322 Descending New York Center
Sun 06:54:17 PM 41.5247 -78.2611 93° East 441 507 34,400 -2,331 Descending New York Center
Sun 06:55:18 PM 41.5186 -78.0942 93° East 446 513 31,800 -1,686 Descending New York Center
Sun 06:56:18 PM 41.5078 -77.9294 95° East 446 513 31,000 -403 Descending New York Center
Sun 06:57:17 PM 41.4839 -77.7692 101° East 446 513 31,000  Level New York Center
Sun 06:58:18 PM 41.4622 -77.6061 100° East 446 513 31,000 -900 Level New York Center
Sun 06:59:17 PM 41.4361 -77.4431 102° East 451 519 29,200 -1,835 Descending New York Center
Sun 07:00:19 PM 41.4150 -77.2969 101° East 451 519 27,300 -1,426 Descending New York Center
Sun 07:01:19 PM 41.3903 -77.1369 102° East 445 512 26,300 -915 Descending New York Center
Sun 07:02:17 PM 41.3708 -76.9942 100° East 440 506 25,500 -661 Descending New York Center
Sun 07:03:17 PM 41.3428 -76.8117 102° East 434 499 25,000 -248 Descending New York Center
Sun 07:04:18 PM 41.3064 -76.6650 108° East 429 494 25,000 -545 Level New York Center
Sun 07:05:18 PM 41.2678 -76.5181 109° East 418 481 23,900 -1,289 Descending New York Center
Sun 07:06:19 PM 41.2267 -76.3739 111° Southeast 418 481 22,400 -1,558 Descending New York Center
Sun 07:08:00 PM 41.1596 -76.1549 108° East  Level FlightAware Approximate
Sun 07:08:19 PM 41.1558 -76.1061 108° East 390 449 19,200  Level New York Center
Sun 07:09:17 PM 41.1256 -75.9908 109° East 372 428 17,600 -1,664 Descending New York Center
Sun 07:10:18 PM 41.0917 -75.8586 109° East 372 428 15,900 -2,083 Descending New York Center
Sun 07:11:18 PM 41.0536 -75.7239 110° East 367 422 13,400 -1,488 Descending New York Center
Sun 07:12:19 PM 41.0211 -75.6003 109° East 353 406 12,900 -248 Descending New York Center
Sun 07:13:19 PM 40.9864 -75.4825 111° Southeast 348 400 12,900 -458 Level New York Center
Sun 07:14:17 PM 40.9517 -75.3619 111° Southeast 348 400 12,000 -1,150 Descending New York Center
Sun 07:15:19 PM 40.9242 -75.2611 110° East 320 368 10,600 -1,339 Descending New York Center
Sun 07:16:18 PM 40.8964 -75.1661 111° Southeast 286 329 9,300 -1,261 Descending New York Center
Sun 07:17:18 PM 40.8725 -75.0822 111° Southeast 274 315 8,100 -1,100 Descending New York Center
Sun 07:18:18 PM 40.8633 -74.9883 97° East 261 300 7,100 -545 Descending New York Center
Sun 07:19:19 PM 40.8839 -74.8825 76° East 260 299 7,000 -99 Descending New York Center
Sun 07:20:19 PM 40.8997 -74.7847 78° East 265 305 6,900 -454 Descending New York Center
Sun 07:21:18 PM 40.9133 -74.6894 79° East 265 305 6,100 -706 Descending New York Center
Sun 07:22:18 PM 40.9183 -74.5964 86° East 265 305 5,500 -545 Descending New York Center
Sun 07:23:19 PM 40.9233 -74.5033 86° East 255 293 5,000 -496 Descending New York Center
Sun 07:24:19 PM 40.9283 -74.4128 86° East 250 288 4,500 -600 Descending New York Center
Sun 07:24:49 PM 40.9333 -74.3667 82° East 239 275 4,100 -333 Descending New York TRACON
Sun 07:25:49 PM 40.9333 -74.2833 90° East 239 275 4,000 -200 Descending New York TRACON
Sun 07:26:49 PM 40.9000 -74.2000 118° Southeast 241 277 3,700 -500 Descending New York TRACON
Sun 07:27:49 PM 40.8833 -74.1167 105° East 235 270 3,000 -550 Descending New York TRACON
Sun 07:28:49 PM 40.8333 -74.0833 153° Southeast 254 292 2,600 -700 Descending New York TRACON
Sun 07:29:49 PM 40.7667 -74.1167 201° Southwest 234 269 1,600 -947 Descending New York TRACON
Sun 07:30:43 PM 40.7333 -74.1333 201° Southwest 144 166 800 -889 Descending New York TRACON

Login

Don't have an account? Register now (free) for customized features, flight alerts, and more!